createdAt,value
2018-05-26T00:00:41.611Z,2.83
2018-05-26T00:03:09.945Z,5.47
2018-05-26T00:05:37.452Z,3.57
2018-05-26T00:08:05.727Z,3.50
2018-05-26T00:10:34.058Z,4.30
2018-05-26T00:13:01.560Z,3.53
2018-05-26T00:15:29.841Z,3.37
2018-05-26T00:17:57.395Z,3.50
2018-05-26T00:20:24.910Z,4.67
2018-05-26T00:22:58.183Z,4.37
2018-05-26T00:25:25.694Z,4.03
2018-05-26T00:27:53.977Z,2.97
2018-05-26T00:30:22.267Z,3.00
2018-05-26T00:32:49.774Z,3.93
2018-05-26T00:35:17.318Z,2.97
2018-05-26T00:37:44.846Z,3.67
2018-05-26T00:40:12.422Z,3.03
2018-05-26T00:42:39.949Z,5.33
2018-05-26T00:45:17.198Z,3.90
2018-05-26T00:47:44.749Z,4.13
2018-05-26T00:50:12.271Z,5.97
2018-05-26T00:52:39.803Z,7.73
2018-05-26T00:55:07.343Z,5.47
2018-05-26T00:57:34.857Z,7.20
2018-05-26T01:00:02.373Z,3.57
2018-05-26T01:02:30.691Z,3.40
2018-05-26T01:04:58.243Z,7.07
2018-05-26T01:07:25.742Z,3.83
2018-05-26T01:09:53.251Z,2.80
2018-05-26T01:12:20.811Z,3.40
2018-05-26T01:14:48.346Z,5.87
2018-05-26T01:17:15.871Z,4.93
2018-05-26T01:19:43.367Z,5.93
2018-05-26T01:22:11.656Z,4.33
2018-05-26T01:24:39.176Z,2.87
2018-05-26T01:27:06.764Z,5.67
2018-05-26T01:29:34.263Z,3.63
2018-05-26T01:32:01.815Z,4.67
2018-05-26T01:34:29.339Z,4.90
2018-05-26T01:36:56.870Z,3.80
2018-05-26T01:39:24.422Z,3.80
2018-05-26T01:41:51.934Z,4.47
2018-05-26T01:44:19.463Z,2.80
2018-05-26T01:46:46.999Z,4.73
2018-05-26T01:49:14.528Z,3.77
2018-05-26T01:51:42.040Z,2.80
2018-05-26T01:54:10.413Z,3.87
2018-05-26T01:56:38.669Z,4.13
2018-05-26T01:59:06.185Z,3.10
2018-05-26T02:01:33.741Z,3.30
2018-05-26T02:04:01.344Z,3.97
2018-05-26T02:06:28.866Z,4.53
2018-05-26T02:08:56.413Z,4.40
2018-05-26T02:11:23.943Z,5.13
2018-05-26T02:14:01.959Z,7.90
2018-05-26T02:16:29.512Z,4.67
2018-05-26T02:18:57.770Z,4.43
2018-05-26T02:21:25.316Z,5.23
2018-05-26T02:23:52.828Z,5.37
2018-05-26T02:26:20.339Z,4.93
2018-05-26T02:28:47.887Z,3.20
2018-05-26T02:31:15.402Z,3.70
2018-05-26T02:33:42.911Z,2.97
2018-05-26T02:36:10.486Z,3.97
2018-05-26T02:38:38.034Z,5.87
2018-05-26T02:41:05.553Z,3.37
2018-05-26T02:43:33.078Z,5.23
2018-05-26T02:46:00.609Z,3.37
2018-05-26T02:48:28.137Z,4.33
2018-05-26T02:50:55.648Z,3.60
2018-05-26T02:53:23.168Z,4.63
2018-05-26T02:55:50.681Z,4.30
2018-05-26T02:58:18.202Z,3.37
2018-05-26T03:00:46.488Z,5.60
2018-05-26T03:03:14.758Z,7.27
2018-05-26T03:05:48.646Z,4.73
2018-05-26T03:08:21.764Z,8.13
2018-05-26T03:10:54.906Z,9.27
2018-05-26T03:13:28.001Z,8.60
2018-05-26T03:16:01.104Z,9.23
2018-05-26T03:18:28.615Z,7.00
2018-05-26T03:20:56.112Z,5.13
2018-05-26T03:23:23.631Z,5.63
2018-05-26T03:25:51.150Z,6.00
2018-05-26T03:28:19.442Z,8.33
2018-05-26T03:30:47.033Z,8.67
2018-05-26T03:33:14.546Z,7.87
2018-05-26T03:35:42.070Z,7.60
2018-05-26T03:38:09.611Z,7.97
2018-05-26T03:40:37.179Z,8.47
2018-05-26T03:43:04.708Z,7.83
2018-05-26T03:45:32.237Z,6.93
2018-05-26T03:48:00.545Z,5.10
2018-05-26T03:50:28.075Z,7.73
2018-05-26T03:52:55.639Z,6.70
2018-05-26T03:55:36.447Z,9.23
2018-05-26T03:58:15.873Z,7.57
2018-05-26T04:00:43.402Z,8.57
2018-05-26T04:03:10.911Z,7.50
2018-05-26T04:05:38.436Z,11.43
2018-05-26T04:08:05.977Z,5.23
2018-05-26T04:10:33.521Z,7.47
2018-05-26T04:13:01.067Z,7.17
2018-05-26T04:15:28.595Z,7.80
2018-05-26T04:17:56.164Z,7.23
2018-05-26T04:20:24.531Z,10.47
2018-05-26T04:22:52.044Z,6.80
2018-05-26T04:25:19.591Z,5.43
2018-05-26T04:27:47.916Z,7.57
2018-05-26T04:30:15.427Z,6.43
2018-05-26T04:32:42.951Z,8.80
2018-05-26T04:35:10.497Z,7.13
2018-05-26T04:37:38.037Z,9.73
2018-05-26T04:40:05.560Z,5.40
2018-05-26T04:42:33.864Z,6.57
2018-05-26T04:45:11.084Z,8.03
2018-05-26T04:47:38.619Z,4.37
2018-05-26T04:50:06.131Z,6.90
2018-05-26T04:52:33.642Z,6.20
2018-05-26T04:55:01.162Z,7.20
2018-05-26T04:57:28.680Z,8.17
2018-05-26T04:59:56.210Z,6.37
2018-05-26T05:02:23.741Z,5.47
2018-05-26T05:04:56.200Z,3.67
2018-05-26T05:07:24.499Z,6.67
2018-05-26T05:09:52.016Z,7.83
2018-05-26T05:12:19.547Z,5.30
2018-05-26T05:14:47.062Z,5.00
2018-05-26T05:17:14.660Z,4.73
2018-05-26T05:19:42.209Z,4.47
2018-05-26T05:22:09.767Z,6.23
2018-05-26T05:24:38.088Z,6.73
2018-05-26T05:27:05.769Z,7.43
2018-05-26T05:29:34.098Z,5.30
2018-05-26T05:32:01.636Z,5.17
2018-05-26T05:34:29.169Z,6.53
2018-05-26T05:36:56.692Z,5.73
2018-05-26T05:39:24.236Z,5.87
2018-05-26T05:41:51.774Z,6.23
2018-05-26T05:44:19.365Z,3.97
2018-05-26T05:46:46.903Z,5.60
2018-05-26T05:49:14.450Z,5.30
2018-05-26T05:51:42.020Z,5.43
2018-05-26T05:54:09.562Z,6.57
2018-05-26T05:56:37.076Z,3.50
2018-05-26T05:59:04.693Z,5.27
2018-05-26T06:01:32.135Z,6.27
2018-05-26T06:03:59.720Z,7.27
2018-05-26T06:06:27.253Z,6.00
2018-05-26T06:08:54.783Z,4.77
2018-05-26T06:11:22.286Z,7.63
2018-05-26T06:13:49.803Z,6.00
2018-05-26T06:16:18.150Z,4.40
2018-05-26T06:18:45.666Z,5.77
2018-05-26T06:21:13.190Z,8.00
2018-05-26T06:23:41.500Z,4.80
2018-05-26T06:26:09.028Z,5.37
2018-05-26T06:28:37.317Z,6.57
2018-05-26T06:31:04.911Z,9.03
2018-05-26T06:33:32.446Z,7.43
2018-05-26T06:35:59.999Z,7.83
2018-05-26T06:38:27.540Z,9.10
2018-05-26T06:40:55.109Z,12.83
2018-05-26T06:43:22.650Z,5.73
2018-05-26T06:45:50.351Z,5.83
2018-05-26T06:48:17.897Z,8.50
2018-05-26T06:50:45.582Z,9.73
2018-05-26T06:53:13.112Z,9.10
2018-05-26T06:55:40.681Z,5.90
2018-05-26T06:58:08.294Z,7.60
2018-05-26T07:00:35.892Z,5.77
2018-05-26T07:03:03.442Z,8.17
2018-05-26T07:05:30.967Z,5.33
2018-05-26T07:07:58.497Z,9.97
2018-05-26T07:10:26.079Z,8.40
2018-05-26T07:12:53.663Z,6.50
2018-05-26T07:15:21.937Z,4.63
2018-05-26T07:17:49.494Z,5.63
2018-05-26T07:20:17.806Z,7.57
2018-05-26T07:22:45.330Z,10.27
2018-05-26T07:25:12.839Z,5.33
2018-05-26T07:27:40.384Z,7.83
2018-05-26T07:30:07.906Z,8.73
2018-05-26T07:32:35.430Z,8.53
2018-05-26T07:35:02.982Z,6.33
2018-05-26T07:37:30.499Z,8.50
2018-05-26T07:39:58.138Z,8.23
2018-05-26T07:42:25.694Z,9.90
2018-05-26T07:44:53.257Z,11.93
2018-05-26T07:47:20.859Z,11.93
2018-05-26T07:49:48.291Z,8.47
2018-05-26T07:52:15.832Z,9.33
2018-05-26T07:54:53.847Z,10.23
2018-05-26T07:57:21.373Z,10.13
2018-05-26T07:59:48.886Z,13.03
2018-05-26T08:02:16.428Z,10.13
2018-05-26T08:04:43.926Z,9.77
2018-05-26T08:07:11.444Z,9.43
2018-05-26T08:09:38.984Z,13.33
2018-05-26T08:12:07.268Z,10.63
2018-05-26T08:14:34.790Z,9.10
2018-05-26T08:17:02.480Z,11.50
2018-05-26T08:19:29.988Z,10.07
2018-05-26T08:21:57.525Z,8.23
2018-05-26T08:24:25.108Z,7.97
2018-05-26T08:26:52.629Z,6.40
2018-05-26T08:29:21.041Z,7.93
2018-05-26T08:31:48.599Z,5.77
2018-05-26T08:34:16.158Z,6.10
2018-05-26T08:36:43.659Z,5.87
2018-05-26T08:39:11.569Z,6.77
2018-05-26T08:41:39.165Z,5.10
2018-05-26T08:44:06.727Z,5.37
2018-05-26T08:46:34.245Z,4.20
2018-05-26T08:49:01.816Z,4.67
2018-05-26T08:51:29.346Z,3.80
2018-05-26T08:53:56.881Z,4.70
2018-05-26T08:56:25.265Z,10.17
2018-05-26T08:58:52.818Z,3.77
2018-05-26T09:01:21.095Z,4.53
2018-05-26T09:03:49.404Z,4.10
2018-05-26T09:06:16.984Z,4.17
2018-05-26T09:08:44.522Z,3.80
2018-05-26T09:11:12.042Z,4.23
2018-05-26T09:13:40.403Z,9.07
2018-05-26T09:16:07.932Z,5.07
2018-05-26T09:18:35.446Z,6.17
2018-05-26T09:21:03.013Z,3.60
2018-05-26T09:23:30.530Z,3.43
2018-05-26T09:25:58.031Z,4.57
2018-05-26T09:28:25.605Z,3.43
2018-05-26T09:30:53.128Z,4.77
2018-05-26T09:33:20.657Z,6.30
2018-05-26T09:35:48.235Z,7.00
2018-05-26T09:38:16.578Z,5.00
2018-05-26T09:40:44.089Z,6.37
2018-05-26T09:43:11.642Z,5.77
2018-05-26T09:45:44.115Z,4.03
2018-05-26T09:48:11.683Z,6.17
2018-05-26T09:50:39.194Z,4.77
2018-05-26T09:53:06.707Z,6.47
2018-05-26T09:55:34.244Z,6.17
2018-05-26T09:58:02.611Z,3.53
2018-05-26T10:00:30.135Z,4.60
2018-05-26T10:02:57.662Z,4.67
2018-05-26T10:05:25.208Z,3.33
2018-05-26T10:07:52.778Z,5.37
2018-05-26T10:10:20.330Z,3.57
2018-05-26T10:12:47.848Z,3.37
2018-05-26T10:15:15.365Z,6.17
2018-05-26T10:17:42.908Z,6.40
2018-05-26T10:20:10.411Z,5.33
2018-05-26T10:22:37.942Z,3.27
2018-05-26T10:25:06.014Z,3.50
2018-05-26T10:27:33.684Z,3.20
2018-05-26T10:30:01.238Z,3.97
2018-05-26T10:32:28.750Z,3.77
2018-05-26T10:34:56.318Z,3.37
2018-05-26T10:37:23.871Z,6.53
2018-05-26T10:39:51.391Z,4.80
2018-05-26T10:42:18.938Z,3.63
2018-05-26T10:44:46.461Z,3.83
2018-05-26T10:47:14.034Z,5.33
2018-05-26T10:49:41.545Z,4.97
2018-05-26T10:52:09.100Z,3.30
2018-05-26T10:54:36.620Z,4.07
2018-05-26T10:57:04.166Z,3.53
2018-05-26T10:59:31.686Z,3.63
2018-05-26T11:01:59.220Z,4.60
2018-05-26T11:04:26.778Z,4.07
2018-05-26T11:06:54.269Z,3.77
2018-05-26T11:09:22.560Z,3.57
2018-05-26T11:11:50.087Z,5.20
2018-05-26T11:14:18.377Z,3.97
2018-05-26T11:16:45.934Z,6.47
2018-05-26T11:19:13.442Z,4.97
2018-05-26T11:21:40.955Z,5.07
2018-05-26T11:24:09.304Z,10.83
2018-05-26T11:26:36.818Z,3.90
2018-05-26T11:29:04.359Z,7.07
2018-05-26T11:31:31.904Z,4.57
2018-05-26T11:34:13.956Z,4.00
2018-05-26T11:36:41.491Z,5.50
2018-05-26T11:39:09.016Z,5.53
2018-05-26T11:41:37.337Z,4.57
2018-05-26T11:44:04.868Z,5.57
2018-05-26T11:46:32.389Z,5.37
2018-05-26T11:48:59.939Z,8.07
2018-05-26T11:51:27.524Z,5.70
2018-05-26T11:53:55.836Z,7.00
2018-05-26T11:56:23.379Z,5.77
2018-05-26T11:58:50.888Z,5.27
2018-05-26T12:01:18.420Z,5.03
2018-05-26T12:03:45.960Z,8.00
2018-05-26T12:06:13.462Z,6.27
2018-05-26T12:08:40.992Z,6.03
2018-05-26T12:11:08.550Z,7.30
2018-05-26T12:13:36.108Z,5.03
2018-05-26T12:16:03.679Z,4.43
2018-05-26T12:18:31.196Z,4.03
2018-05-26T12:20:58.725Z,5.90
2018-05-26T12:23:26.259Z,6.77
2018-05-26T12:25:53.792Z,4.40
2018-05-26T12:28:21.329Z,8.03
2018-05-26T12:30:48.895Z,5.90
2018-05-26T12:33:16.444Z,4.80
2018-05-26T12:35:43.990Z,4.93
2018-05-26T12:38:11.561Z,9.15
2018-05-26T12:40:39.102Z,7.60
2018-05-26T12:43:07.413Z,5.80
2018-05-26T12:45:34.941Z,6.93
2018-05-26T12:48:02.502Z,6.90
2018-05-26T12:50:30.031Z,6.78
2018-05-26T12:52:57.880Z,5.82
2018-05-26T12:55:35.106Z,5.80
2018-05-26T12:58:02.641Z,4.62
2018-05-26T13:00:30.265Z,5.22
2018-05-26T13:02:57.824Z,4.72
2018-05-26T13:05:25.552Z,9.07
2018-05-26T13:07:53.087Z,5.90
2018-05-26T13:10:20.915Z,8.38
2018-05-26T13:12:48.447Z,6.03
2018-05-26T13:15:30.352Z,8.93
2018-05-26T13:17:57.863Z,6.47
2018-05-26T13:20:26.164Z,5.30
2018-05-26T13:22:53.725Z,7.03
2018-05-26T13:25:30.999Z,7.90
2018-05-26T13:27:58.579Z,4.90
2018-05-26T13:30:26.168Z,6.72
2018-05-26T13:32:53.676Z,7.80
2018-05-26T13:35:22.098Z,4.18
2018-05-26T13:37:49.669Z,7.82
2018-05-26T13:40:17.204Z,5.40
2018-05-26T13:42:44.748Z,4.15
2018-05-26T13:45:12.396Z,4.78
2018-05-26T13:47:39.963Z,4.43
2018-05-26T13:50:07.524Z,5.03
2018-05-26T13:52:35.070Z,5.62
2018-05-26T13:55:03.727Z,5.72
2018-05-26T13:57:31.290Z,7.47
2018-05-26T13:59:58.846Z,4.12
2018-05-26T14:02:26.385Z,4.57
2018-05-26T14:04:58.901Z,4.53
2018-05-26T14:07:27.211Z,4.97
2018-05-26T14:09:54.738Z,6.50
2018-05-26T14:12:22.281Z,6.50
2018-05-26T14:14:50.631Z,5.70
2018-05-26T14:17:18.223Z,5.37
2018-05-26T14:19:45.820Z,6.82
2018-05-26T14:22:13.327Z,3.65
2018-05-26T14:24:40.934Z,4.22
2018-05-26T14:27:08.459Z,4.57
2018-05-26T14:29:36.027Z,5.72
2018-05-26T14:32:04.332Z,4.72
2018-05-26T14:34:31.899Z,6.25
2018-05-26T14:36:59.446Z,4.12
2018-05-26T14:39:27.031Z,9.75
2018-05-26T14:41:54.533Z,9.88
2018-05-26T14:44:28.038Z,8.00
2018-05-26T14:46:55.538Z,9.40
2018-05-26T14:49:23.085Z,4.53
2018-05-26T14:51:50.696Z,5.45
2018-05-26T14:54:19.104Z,6.47
2018-05-26T14:56:46.646Z,6.62
2018-05-26T14:59:14.979Z,5.35
2018-05-26T15:01:42.520Z,6.18
2018-05-26T15:04:10.106Z,5.95
2018-05-26T15:06:37.662Z,10.65
2018-05-26T15:09:05.220Z,6.57
2018-05-26T15:11:32.791Z,7.93
2018-05-26T15:14:10.083Z,5.87
2018-05-26T15:16:37.620Z,5.12
2018-05-26T15:19:05.212Z,7.00
2018-05-26T15:21:32.753Z,4.43
2018-05-26T15:24:00.287Z,6.40
2018-05-26T15:26:27.851Z,6.50
2018-05-26T15:28:55.368Z,5.95
2018-05-26T15:31:22.939Z,5.57
2018-05-26T15:33:50.500Z,5.62
2018-05-26T15:36:18.000Z,9.32
2018-05-26T15:38:46.556Z,12.85
2018-05-26T15:41:14.110Z,6.80
2018-05-26T15:43:41.655Z,5.18
2018-05-26T15:46:09.176Z,7.35
2018-05-26T15:48:37.523Z,8.52
2018-05-26T15:51:05.042Z,9.32
2018-05-26T15:53:32.542Z,7.80
2018-05-26T15:56:00.111Z,7.53
2018-05-26T15:58:27.631Z,6.30
2018-05-26T16:00:55.155Z,6.18
2018-05-26T16:03:22.735Z,6.53
2018-05-26T16:05:50.270Z,7.37
2018-05-26T16:08:17.824Z,5.40
2018-05-26T16:10:45.360Z,5.78
2018-05-26T16:13:12.895Z,8.65
2018-05-26T16:15:40.412Z,8.82
2018-05-26T16:18:07.973Z,7.00
2018-05-26T16:20:35.552Z,9.38
2018-05-26T16:23:03.076Z,7.25
2018-05-26T16:25:30.613Z,9.20
2018-05-26T16:27:58.142Z,5.78
2018-05-26T16:30:25.694Z,9.75
2018-05-26T16:32:53.207Z,8.77
2018-05-26T16:35:21.528Z,6.47
2018-05-26T16:37:49.085Z,13.25
2018-05-26T16:40:16.602Z,6.12
2018-05-26T16:42:44.143Z,7.12
2018-05-26T16:45:12.459Z,5.97
2018-05-26T16:47:40.048Z,6.80
2018-05-26T16:50:07.561Z,11.90
2018-05-26T16:52:35.106Z,10.35
2018-05-26T16:55:03.470Z,7.97
2018-05-26T16:57:31.011Z,9.07
2018-05-26T16:59:58.562Z,9.60
2018-05-26T17:02:26.950Z,9.85
2018-05-26T17:04:54.451Z,7.70
2018-05-26T17:07:22.317Z,6.75
2018-05-26T17:09:49.886Z,9.38
2018-05-26T17:12:17.399Z,7.43
2018-05-26T17:14:44.908Z,5.90
2018-05-26T17:17:12.435Z,6.30
2018-05-26T17:19:40.717Z,7.47
2018-05-26T17:22:08.295Z,8.70
2018-05-26T17:24:45.527Z,6.30
2018-05-26T17:27:13.045Z,5.77
2018-05-26T17:29:40.589Z,6.33
2018-05-26T17:32:08.132Z,6.20
2018-05-26T17:34:35.634Z,5.97
2018-05-26T17:37:03.134Z,7.20
2018-05-26T17:39:31.418Z,7.90
2018-05-26T17:41:59.739Z,7.97
2018-05-26T17:44:27.255Z,9.07
2018-05-26T17:46:55.590Z,8.17
2018-05-26T17:49:23.115Z,7.57
2018-05-26T17:51:50.638Z,11.00
2018-05-26T17:54:18.946Z,8.07
2018-05-26T17:56:46.471Z,15.53
2018-05-26T17:59:13.996Z,9.33
2018-05-26T18:01:41.539Z,9.67
2018-05-26T18:04:09.097Z,10.67
2018-05-26T18:06:36.621Z,12.47
2018-05-26T18:09:04.192Z,6.50
2018-05-26T18:11:31.723Z,6.23
2018-05-26T18:14:05.108Z,9.50
2018-05-26T18:16:32.633Z,6.60
2018-05-26T18:19:00.146Z,6.83
2018-05-26T18:21:27.664Z,5.60
2018-05-26T18:23:55.189Z,11.63
2018-05-26T18:26:22.779Z,6.80
2018-05-26T18:28:50.331Z,10.13
2018-05-26T18:31:17.872Z,9.47
2018-05-26T18:33:45.387Z,6.77
2018-05-26T18:36:12.926Z,7.63
2018-05-26T18:38:40.459Z,9.50
2018-05-26T18:41:07.990Z,6.20
2018-05-26T18:43:35.522Z,7.53
2018-05-26T18:46:03.058Z,14.30
2018-05-26T18:48:30.587Z,12.83
2018-05-26T18:50:58.117Z,9.37
2018-05-26T18:53:25.680Z,10.70
2018-05-26T18:55:53.405Z,7.80
2018-05-26T18:58:20.912Z,6.70
2018-05-26T19:00:48.518Z,10.37
2018-05-26T19:03:16.014Z,10.50
2018-05-26T19:05:53.388Z,11.07
2018-05-26T19:08:20.903Z,9.07
2018-05-26T19:10:48.426Z,8.10
2018-05-26T19:13:16.204Z,11.47
2018-05-26T19:15:43.714Z,7.63
2018-05-26T19:18:12.014Z,8.77
2018-05-26T19:20:39.596Z,9.90
2018-05-26T19:23:07.109Z,8.93
2018-05-26T19:25:34.629Z,9.57
2018-05-26T19:28:02.184Z,11.73
2018-05-26T19:30:29.700Z,7.73
2018-05-26T19:32:57.222Z,11.70
2018-05-26T19:35:24.778Z,8.47
2018-05-26T19:37:52.340Z,13.50
2018-05-26T19:40:19.867Z,14.27
2018-05-26T19:42:47.473Z,18.57
2018-05-26T19:45:15.773Z,11.80
2018-05-26T19:47:43.295Z,13.87
2018-05-26T19:50:10.859Z,16.17
2018-05-26T19:52:38.363Z,18.23
2018-05-26T19:55:05.940Z,15.30
2018-05-26T19:57:33.452Z,10.87
2018-05-26T20:00:01.756Z,19.03
2018-05-26T20:02:30.097Z,14.47
2018-05-26T20:04:57.602Z,14.73
2018-05-26T20:07:25.144Z,13.37
2018-05-26T20:09:52.704Z,11.60
2018-05-26T20:12:20.229Z,10.97
2018-05-26T20:14:48.070Z,12.60
2018-05-26T20:17:15.652Z,19.93
2018-05-26T20:19:43.985Z,13.50
2018-05-26T20:22:11.504Z,11.17
2018-05-26T20:24:39.063Z,13.57
2018-05-26T20:27:06.566Z,8.10
2018-05-26T20:29:34.183Z,11.17
2018-05-26T20:32:01.734Z,11.30
2018-05-26T20:34:29.268Z,17.63
2018-05-26T20:36:56.772Z,11.50
2018-05-26T20:41:57.109Z,9.87
2018-05-26T20:44:24.774Z,9.77
2018-05-26T20:46:52.401Z,9.27
2018-05-26T20:49:21.340Z,9.93
2018-05-26T20:51:48.942Z,11.13
2018-05-26T20:54:17.523Z,13.03
2018-05-26T20:56:45.070Z,15.70
2018-05-26T20:59:12.655Z,14.00
2018-05-26T21:01:40.167Z,9.50
2018-05-26T21:04:07.701Z,9.00
2018-05-26T21:06:35.996Z,15.43
2018-05-26T21:09:03.505Z,8.70
2018-05-26T21:11:31.084Z,11.03
2018-05-26T21:13:58.605Z,11.67
2018-05-26T21:16:26.182Z,12.47
2018-05-26T21:18:54.459Z,14.03
2018-05-26T21:21:21.998Z,14.07
2018-05-26T21:23:49.529Z,13.70
2018-05-26T21:26:17.065Z,12.67
2018-05-26T21:28:44.586Z,8.70
2018-05-26T21:31:12.904Z,16.47
2018-05-26T21:33:40.424Z,11.37
2018-05-26T21:36:07.955Z,11.73
2018-05-26T21:38:35.486Z,16.17
2018-05-26T21:41:03.001Z,15.20
2018-05-26T21:43:30.531Z,12.60
2018-05-26T21:45:58.060Z,11.50
2018-05-26T21:48:25.584Z,9.63
2018-05-26T21:50:53.129Z,11.23
2018-05-26T21:53:21.468Z,9.67
2018-05-26T21:55:48.975Z,14.30
2018-05-26T21:58:16.507Z,12.37
2018-05-26T22:00:44.032Z,13.97
2018-05-26T22:03:11.536Z,7.97
2018-05-26T22:05:39.081Z,10.63
2018-05-26T22:08:06.628Z,8.83
2018-05-26T22:10:34.182Z,7.23
2018-05-26T22:13:01.701Z,11.37
2018-05-26T22:15:29.276Z,10.73
2018-05-26T22:17:56.795Z,13.63
2018-05-26T22:20:25.092Z,10.43
2018-05-26T22:22:52.604Z,8.40
2018-05-26T22:25:20.119Z,12.77
2018-05-26T22:27:47.699Z,10.20
2018-05-26T22:30:15.215Z,14.40
2018-05-26T22:32:42.740Z,7.60
2018-05-26T22:35:11.066Z,10.83
2018-05-26T22:37:38.598Z,10.53
2018-05-26T22:40:06.153Z,7.30
2018-05-26T22:42:34.460Z,10.37
2018-05-26T22:45:01.977Z,8.37
2018-05-26T22:47:30.254Z,10.23
2018-05-26T22:49:57.793Z,8.00
2018-05-26T22:52:25.351Z,6.30
2018-05-26T22:54:52.887Z,10.47
2018-05-26T22:57:20.401Z,10.83
2018-05-26T22:59:47.922Z,9.97
2018-05-26T23:02:15.474Z,9.20
2018-05-26T23:04:42.975Z,5.07
2018-05-26T23:07:10.536Z,8.23
2018-05-26T23:09:38.112Z,6.33
2018-05-26T23:12:05.652Z,14.27
2018-05-26T23:14:33.203Z,11.53
2018-05-26T23:17:00.770Z,7.20
2018-05-26T23:19:29.036Z,7.47
2018-05-26T23:21:56.592Z,6.40
2018-05-26T23:24:24.969Z,10.53
2018-05-26T23:26:53.269Z,6.90
2018-05-26T23:29:20.787Z,6.37
2018-05-26T23:31:49.088Z,6.37
2018-05-26T23:34:16.630Z,6.77
2018-05-26T23:36:44.131Z,8.23
2018-05-26T23:39:11.691Z,7.87
2018-05-26T23:41:39.259Z,5.43
2018-05-26T23:44:06.813Z,4.03
2018-05-26T23:46:34.372Z,7.33
2018-05-26T23:49:01.907Z,8.50
2018-05-26T23:51:29.463Z,7.60
2018-05-26T23:53:56.968Z,5.33
2018-05-26T23:56:24.494Z,6.10
2018-05-26T23:58:52.018Z,7.83
